sensor_id;sensor_type;location;lat;lon;timestamp;temperature;humidity
26575;DHT22;67165;50.256;10.978;2023-11-22T00:02:22;3.20;98.00
26575;DHT22;67165;50.256;10.978;2023-11-22T00:04:48;3.20;98.00
26575;DHT22;67165;50.256;10.978;2023-11-22T00:07:13;3.20;98.00
26575;DHT22;67165;50.256;10.978;2023-11-22T00:09:39;3.20;98.00
26575;DHT22;67165;50.256;10.978;2023-11-22T00:12:05;3.20;98.00
26575;DHT22;67165;50.256;10.978;2023-11-22T00:14:31;3.20;98.00
26575;DHT22;67165;50.256;10.978;2023-11-22T00:16:57;3.20;98.00
26575;DHT22;67165;50.256;10.978;2023-11-22T00:19:22;3.20;98.00
26575;DHT22;67165;50.256;10.978;2023-11-22T00:21:49;3.10;98.00
26575;DHT22;67165;50.256;10.978;2023-11-22T00:24:14;3.10;98.00
26575;DHT22;67165;50.256;10.978;2023-11-22T00:26:40;3.20;98.00
26575;DHT22;67165;50.256;10.978;2023-11-22T00:29:07;3.20;98.00
26575;DHT22;67165;50.256;10.978;2023-11-22T00:31:32;3.20;98.00
26575;DHT22;67165;50.256;10.978;2023-11-22T00:33:58;3.20;98.00
26575;DHT22;67165;50.256;10.978;2023-11-22T00:36:23;3.00;98.00
26575;DHT22;67165;50.256;10.978;2023-11-22T00:38:49;2.90;98.00
26575;DHT22;67165;50.256;10.978;2023-11-22T00:41:15;2.80;98.00
26575;DHT22;67165;50.256;10.978;2023-11-22T00:43:41;2.70;98.00
26575;DHT22;67165;50.256;10.978;2023-11-22T00:46:06;2.60;98.00
26575;DHT22;67165;50.256;10.978;2023-11-22T00:48:32;2.50;98.00
26575;DHT22;67165;50.256;10.978;2023-11-22T00:50:58;2.50;98.00
26575;DHT22;67165;50.256;10.978;2023-11-22T00:53:24;2.50;98.00
26575;DHT22;67165;50.256;10.978;2023-11-22T00:55:50;2.50;98.00
26575;DHT22;67165;50.256;10.978;2023-11-22T00:58:16;2.50;98.00
26575;DHT22;67165;50.256;10.978;2023-11-22T01:00:41;2.40;98.00
26575;DHT22;67165;50.256;10.978;2023-11-22T01:03:07;2.40;98.00
26575;DHT22;67165;50.256;10.978;2023-11-22T01:05:37;2.30;98.00
26575;DHT22;67165;50.256;10.978;2023-11-22T01:08:03;2.30;98.00
26575;DHT22;67165;50.256;10.978;2023-11-22T01:10:28;2.30;98.00
26575;DHT22;67165;50.256;10.978;2023-11-22T01:12:55;2.30;98.00
26575;DHT22;67165;50.256;10.978;2023-11-22T01:15:20;2.30;98.00
26575;DHT22;67165;50.256;10.978;2023-11-22T01:17:47;2.40;98.00
26575;DHT22;67165;50.256;10.978;2023-11-22T01:20:12;2.40;98.00
26575;DHT22;67165;50.256;10.978;2023-11-22T01:22:39;2.30;98.00
26575;DHT22;67165;50.256;10.978;2023-11-22T01:25:05;2.30;98.00
26575;DHT22;67165;50.256;10.978;2023-11-22T01:27:31;2.30;98.00
26575;DHT22;67165;50.256;10.978;2023-11-22T01:29:56;2.30;98.00
26575;DHT22;67165;50.256;10.978;2023-11-22T01:32:22;2.30;98.00
26575;DHT22;67165;50.256;10.978;2023-11-22T01:34:48;2.30;98.00
26575;DHT22;67165;50.256;10.978;2023-11-22T01:37:13;2.20;98.00
26575;DHT22;67165;50.256;10.978;2023-11-22T01:39:40;2.30;98.00
26575;DHT22;67165;50.256;10.978;2023-11-22T01:42:08;2.20;98.00
26575;DHT22;67165;50.256;10.978;2023-11-22T01:44:34;2.30;98.00
26575;DHT22;67165;50.256;10.978;2023-11-22T01:47:01;2.30;98.00
26575;DHT22;67165;50.256;10.978;2023-11-22T01:49:29;2.30;98.00
26575;DHT22;67165;50.256;10.978;2023-11-22T01:51:54;2.50;98.00
26575;DHT22;67165;50.256;10.978;2023-11-22T01:54:22;2.50;98.00
26575;DHT22;67165;50.256;10.978;2023-11-22T01:56:48;2.50;98.00
26575;DHT22;67165;50.256;10.978;2023-11-22T01:59:15;2.50;98.00
26575;DHT22;67165;50.256;10.978;2023-11-22T02:01:42;2.40;98.00
26575;DHT22;67165;50.256;10.978;2023-11-22T02:04:08;2.40;98.00
26575;DHT22;67165;50.256;10.978;2023-11-22T02:06:35;2.40;98.00
26575;DHT22;67165;50.256;10.978;2023-11-22T02:09:01;2.50;98.00
26575;DHT22;67165;50.256;10.978;2023-11-22T02:11:26;2.50;98.00
26575;DHT22;67165;50.256;10.978;2023-11-22T02:13:52;2.40;98.00
26575;DHT22;67165;50.256;10.978;2023-11-22T02:16:19;2.40;98.00
26575;DHT22;67165;50.256;10.978;2023-11-22T02:18:45;2.40;98.00
26575;DHT22;67165;50.256;10.978;2023-11-22T02:21:11;2.50;98.00
26575;DHT22;67165;50.256;10.978;2023-11-22T02:23:37;2.50;98.00
26575;DHT22;67165;50.256;10.978;2023-11-22T02:26:02;2.40;98.00
26575;DHT22;67165;50.256;10.978;2023-11-22T02:28:29;2.30;98.00
26575;DHT22;67165;50.256;10.978;2023-11-22T02:30:54;2.30;98.00
26575;DHT22;67165;50.256;10.978;2023-11-22T02:33:20;2.30;98.00
26575;DHT22;67165;50.256;10.978;2023-11-22T02:35:46;2.30;98.00
26575;DHT22;67165;50.256;10.978;2023-11-22T02:38:11;2.40;98.00
26575;DHT22;67165;50.256;10.978;2023-11-22T02:40:37;2.30;98.00
26575;DHT22;67165;50.256;10.978;2023-11-22T02:43:03;2.30;98.00
26575;DHT22;67165;50.256;10.978;2023-11-22T02:45:33;2.20;98.00
26575;DHT22;67165;50.256;10.978;2023-11-22T02:47:59;2.10;98.00
26575;DHT22;67165;50.256;10.978;2023-11-22T02:50:27;2.10;98.00
26575;DHT22;67165;50.256;10.978;2023-11-22T02:52:53;2.10;98.00
26575;DHT22;67165;50.256;10.978;2023-11-22T02:55:18;2.10;98.00
26575;DHT22;67165;50.256;10.978;2023-11-22T02:57:45;2.10;98.00
26575;DHT22;67165;50.256;10.978;2023-11-22T03:00:11;2.20;98.00
26575;DHT22;67165;50.256;10.978;2023-11-22T03:02:41;2.20;98.00
26575;DHT22;67165;50.256;10.978;2023-11-22T03:05:10;2.20;98.00
26575;DHT22;67165;50.256;10.978;2023-11-22T03:07:36;2.00;98.00
26575;DHT22;67165;50.256;10.978;2023-11-22T03:10:03;2.00;98.00
26575;DHT22;67165;50.256;10.978;2023-11-22T03:12:28;2.00;98.00
26575;DHT22;67165;50.256;10.978;2023-11-22T03:14:54;2.00;98.00
26575;DHT22;67165;50.256;10.978;2023-11-22T03:17:27;2.00;98.00
26575;DHT22;67165;50.256;10.978;2023-11-22T03:19:54;2.00;98.00
26575;DHT22;67165;50.256;10.978;2023-11-22T03:22:25;2.00;98.00
26575;DHT22;67165;50.256;10.978;2023-11-22T03:24:51;1.90;98.00
26575;DHT22;67165;50.256;10.978;2023-11-22T03:27:18;1.90;98.00
26575;DHT22;67165;50.256;10.978;2023-11-22T03:29:44;1.80;98.00
26575;DHT22;67165;50.256;10.978;2023-11-22T03:32:09;1.70;98.00
26575;DHT22;67165;50.256;10.978;2023-11-22T03:34:36;1.80;98.00
26575;DHT22;67165;50.256;10.978;2023-11-22T03:37:02;1.80;98.00
26575;DHT22;67165;50.256;10.978;2023-11-22T03:39:28;1.80;98.00
26575;DHT22;67165;50.256;10.978;2023-11-22T03:41:53;1.90;98.00
26575;DHT22;67165;50.256;10.978;2023-11-22T03:44:19;1.80;98.00
26575;DHT22;67165;50.256;10.978;2023-11-22T03:46:45;1.80;98.00
26575;DHT22;67165;50.256;10.978;2023-11-22T03:49:10;1.80;98.00
26575;DHT22;67165;50.256;10.978;2023-11-22T03:51:37;1.80;98.00
26575;DHT22;67165;50.256;10.978;2023-11-22T03:54:03;1.80;98.00
26575;DHT22;67165;50.256;10.978;2023-11-22T03:56:29;1.80;98.00
26575;DHT22;67165;50.256;10.978;2023-11-22T03:58:55;1.70;98.00
26575;DHT22;67165;50.256;10.978;2023-11-22T04:01:21;1.70;98.00
26575;DHT22;67165;50.256;10.978;2023-11-22T04:03:47;1.70;98.00
26575;DHT22;67165;50.256;10.978;2023-11-22T04:06:16;1.70;98.00
26575;DHT22;67165;50.256;10.978;2023-11-22T04:08:46;1.70;98.00
26575;DHT22;67165;50.256;10.978;2023-11-22T04:11:12;1.70;98.00
26575;DHT22;67165;50.256;10.978;2023-11-22T04:13:38;1.70;98.00
26575;DHT22;67165;50.256;10.978;2023-11-22T04:16:05;1.70;98.00
26575;DHT22;67165;50.256;10.978;2023-11-22T04:18:37;1.70;98.00
26575;DHT22;67165;50.256;10.978;2023-11-22T04:21:03;1.70;98.00
26575;DHT22;67165;50.256;10.978;2023-11-22T04:23:31;1.70;98.00
26575;DHT22;67165;50.256;10.978;2023-11-22T04:25:57;1.70;98.00
26575;DHT22;67165;50.256;10.978;2023-11-22T04:28:24;1.70;98.00
26575;DHT22;67165;50.256;10.978;2023-11-22T04:30:50;1.70;98.00
26575;DHT22;67165;50.256;10.978;2023-11-22T04:33:17;1.60;98.00
26575;DHT22;67165;50.256;10.978;2023-11-22T04:35:43;1.50;98.00
26575;DHT22;67165;50.256;10.978;2023-11-22T04:38:08;1.60;98.00
26575;DHT22;67165;50.256;10.978;2023-11-22T04:40:34;1.60;98.00
26575;DHT22;67165;50.256;10.978;2023-11-22T04:43:00;1.60;98.00
26575;DHT22;67165;50.256;10.978;2023-11-22T04:45:25;1.50;98.00
26575;DHT22;67165;50.256;10.978;2023-11-22T04:47:51;1.50;98.00
26575;DHT22;67165;50.256;10.978;2023-11-22T04:50:17;1.50;98.00
26575;DHT22;67165;50.256;10.978;2023-11-22T04:52:43;1.50;98.00
26575;DHT22;67165;50.256;10.978;2023-11-22T04:55:09;1.40;98.00
26575;DHT22;67165;50.256;10.978;2023-11-22T04:57:35;1.40;98.00
26575;DHT22;67165;50.256;10.978;2023-11-22T05:00:00;1.40;98.00
26575;DHT22;67165;50.256;10.978;2023-11-22T05:02:27;1.40;98.00
26575;DHT22;67165;50.256;10.978;2023-11-22T05:04:54;1.30;98.00
26575;DHT22;67165;50.256;10.978;2023-11-22T05:07:19;1.30;98.00
26575;DHT22;67165;50.256;10.978;2023-11-22T05:09:45;1.30;98.00
26575;DHT22;67165;50.256;10.978;2023-11-22T05:12:11;1.30;98.00
26575;DHT22;67165;50.256;10.978;2023-11-22T05:14:37;1.30;98.00
26575;DHT22;67165;50.256;10.978;2023-11-22T05:17:04;1.30;98.00
26575;DHT22;67165;50.256;10.978;2023-11-22T05:19:30;1.30;98.00
26575;DHT22;67165;50.256;10.978;2023-11-22T05:21:57;1.40;98.00
26575;DHT22;67165;50.256;10.978;2023-11-22T05:24:23;1.50;98.00
26575;DHT22;67165;50.256;10.978;2023-11-22T05:26:49;1.40;98.00
26575;DHT22;67165;50.256;10.978;2023-11-22T05:29:14;1.40;98.00
26575;DHT22;67165;50.256;10.978;2023-11-22T05:31:40;1.30;98.00
26575;DHT22;67165;50.256;10.978;2023-11-22T05:34:06;1.20;98.00
26575;DHT22;67165;50.256;10.978;2023-11-22T05:36:31;1.30;98.00
26575;DHT22;67165;50.256;10.978;2023-11-22T05:38:57;1.30;98.00
26575;DHT22;67165;50.256;10.978;2023-11-22T05:41:26;1.20;98.00
26575;DHT22;67165;50.256;10.978;2023-11-22T05:43:52;1.20;98.00
26575;DHT22;67165;50.256;10.978;2023-11-22T05:46:19;1.10;98.00
26575;DHT22;67165;50.256;10.978;2023-11-22T05:48:48;1.20;98.00
26575;DHT22;67165;50.256;10.978;2023-11-22T05:51:15;1.10;98.00
26575;DHT22;67165;50.256;10.978;2023-11-22T05:53:41;1.10;98.00
26575;DHT22;67165;50.256;10.978;2023-11-22T05:56:06;1.10;98.00
26575;DHT22;67165;50.256;10.978;2023-11-22T05:58:34;1.10;98.00
26575;DHT22;67165;50.256;10.978;2023-11-22T06:01:02;1.10;98.00
26575;DHT22;67165;50.256;10.978;2023-11-22T06:03:28;1.20;98.00
26575;DHT22;67165;50.256;10.978;2023-11-22T06:05:53;1.10;98.00
26575;DHT22;67165;50.256;10.978;2023-11-22T06:08:19;1.10;98.00
26575;DHT22;67165;50.256;10.978;2023-11-22T06:10:45;1.20;98.00
26575;DHT22;67165;50.256;10.978;2023-11-22T06:13:12;1.10;98.00
26575;DHT22;67165;50.256;10.978;2023-11-22T06:15:38;1.10;98.00
26575;DHT22;67165;50.256;10.978;2023-11-22T06:18:04;1.00;98.00
26575;DHT22;67165;50.256;10.978;2023-11-22T06:20:29;1.00;98.00
26575;DHT22;67165;50.256;10.978;2023-11-22T06:22:55;1.00;98.00
26575;DHT22;67165;50.256;10.978;2023-11-22T06:25:21;1.10;98.00
26575;DHT22;67165;50.256;10.978;2023-11-22T06:27:46;1.10;98.00
26575;DHT22;67165;50.256;10.978;2023-11-22T06:30:12;1.00;98.00
26575;DHT22;67165;50.256;10.978;2023-11-22T06:32:38;1.00;98.00
26575;DHT22;67165;50.256;10.978;2023-11-22T06:35:04;1.00;98.00
26575;DHT22;67165;50.256;10.978;2023-11-22T06:37:32;1.00;98.00
26575;DHT22;67165;50.256;10.978;2023-11-22T06:39:58;1.10;98.00
26575;DHT22;67165;50.256;10.978;2023-11-22T06:42:23;1.00;98.00
26575;DHT22;67165;50.256;10.978;2023-11-22T06:44:49;0.90;98.00
26575;DHT22;67165;50.256;10.978;2023-11-22T06:47:18;1.00;98.00
26575;DHT22;67165;50.256;10.978;2023-11-22T06:49:44;1.00;98.00
26575;DHT22;67165;50.256;10.978;2023-11-22T06:52:10;1.10;98.00
26575;DHT22;67165;50.256;10.978;2023-11-22T06:54:35;1.10;98.00
26575;DHT22;67165;50.256;10.978;2023-11-22T06:57:02;1.10;98.00
26575;DHT22;67165;50.256;10.978;2023-11-22T06:59:28;1.00;98.00
26575;DHT22;67165;50.256;10.978;2023-11-22T07:01:54;1.00;98.00
26575;DHT22;67165;50.256;10.978;2023-11-22T07:04:21;1.00;98.00
26575;DHT22;67165;50.256;10.978;2023-11-22T07:06:48;1.00;98.00
26575;DHT22;67165;50.256;10.978;2023-11-22T07:09:14;0.90;98.00
26575;DHT22;67165;50.256;10.978;2023-11-22T07:11:40;1.00;98.00
26575;DHT22;67165;50.256;10.978;2023-11-22T07:14:06;1.00;98.00
26575;DHT22;67165;50.256;10.978;2023-11-22T07:16:32;1.00;98.00
26575;DHT22;67165;50.256;10.978;2023-11-22T07:18:59;0.90;98.00
26575;DHT22;67165;50.256;10.978;2023-11-22T07:21:28;0.90;98.00
26575;DHT22;67165;50.256;10.978;2023-11-22T07:23:55;0.90;98.00
26575;DHT22;67165;50.256;10.978;2023-11-22T07:26:21;1.00;98.00
26575;DHT22;67165;50.256;10.978;2023-11-22T07:28:47;0.90;98.00
26575;DHT22;67165;50.256;10.978;2023-11-22T07:31:12;0.90;98.00
26575;DHT22;67165;50.256;10.978;2023-11-22T07:33:38;1.00;98.00
26575;DHT22;67165;50.256;10.978;2023-11-22T07:36:05;1.00;98.00
26575;DHT22;67165;50.256;10.978;2023-11-22T07:38:30;0.90;98.00
26575;DHT22;67165;50.256;10.978;2023-11-22T07:40:57;0.80;98.00
26575;DHT22;67165;50.256;10.978;2023-11-22T07:43:23;0.80;98.00
26575;DHT22;67165;50.256;10.978;2023-11-22T07:45:49;0.90;98.00
26575;DHT22;67165;50.256;10.978;2023-11-22T07:48:16;0.80;98.00
26575;DHT22;67165;50.256;10.978;2023-11-22T07:50:42;0.90;98.00
26575;DHT22;67165;50.256;10.978;2023-11-22T07:53:14;0.80;98.00
26575;DHT22;67165;50.256;10.978;2023-11-22T07:55:40;0.70;98.00
26575;DHT22;67165;50.256;10.978;2023-11-22T07:58:07;0.80;98.00
26575;DHT22;67165;50.256;10.978;2023-11-22T08:00:33;0.90;98.00
26575;DHT22;67165;50.256;10.978;2023-11-22T08:03:07;0.80;98.00
26575;DHT22;67165;50.256;10.978;2023-11-22T08:05:33;0.90;98.00
26575;DHT22;67165;50.256;10.978;2023-11-22T08:08:04;0.90;98.00
26575;DHT22;67165;50.256;10.978;2023-11-22T08:10:37;0.90;98.00
26575;DHT22;67165;50.256;10.978;2023-11-22T08:13:03;0.80;98.00
26575;DHT22;67165;50.256;10.978;2023-11-22T08:15:29;0.90;98.00
26575;DHT22;67165;50.256;10.978;2023-11-22T08:17:58;1.00;98.00
26575;DHT22;67165;50.256;10.978;2023-11-22T08:20:24;1.10;98.00
26575;DHT22;67165;50.256;10.978;2023-11-22T08:22:50;1.00;98.00
26575;DHT22;67165;50.256;10.978;2023-11-22T08:25:16;1.10;98.00
26575;DHT22;67165;50.256;10.978;2023-11-22T08:27:42;1.10;98.00
26575;DHT22;67165;50.256;10.978;2023-11-22T08:30:09;1.10;98.00
26575;DHT22;67165;50.256;10.978;2023-11-22T08:32:45;1.20;98.00
26575;DHT22;67165;50.256;10.978;2023-11-22T08:35:19;1.40;98.00
26575;DHT22;67165;50.256;10.978;2023-11-22T08:37:45;1.40;98.00
26575;DHT22;67165;50.256;10.978;2023-11-22T08:40:12;1.50;98.00
26575;DHT22;67165;50.256;10.978;2023-11-22T08:42:42;1.60;98.00
26575;DHT22;67165;50.256;10.978;2023-11-22T08:45:08;1.60;98.00
26575;DHT22;67165;50.256;10.978;2023-11-22T08:47:34;1.60;98.00
26575;DHT22;67165;50.256;10.978;2023-11-22T08:50:00;1.70;98.00
26575;DHT22;67165;50.256;10.978;2023-11-22T08:52:29;1.70;98.00
26575;DHT22;67165;50.256;10.978;2023-11-22T08:54:56;1.70;98.00
26575;DHT22;67165;50.256;10.978;2023-11-22T08:57:22;1.70;98.00
26575;DHT22;67165;50.256;10.978;2023-11-22T08:59:47;1.80;98.00
26575;DHT22;67165;50.256;10.978;2023-11-22T09:02:14;1.80;98.00
26575;DHT22;67165;50.256;10.978;2023-11-22T09:04:41;1.80;98.00
26575;DHT22;67165;50.256;10.978;2023-11-22T09:07:07;1.90;98.00
26575;DHT22;67165;50.256;10.978;2023-11-22T09:09:33;1.80;98.00
26575;DHT22;67165;50.256;10.978;2023-11-22T09:12:00;1.60;98.00
26575;DHT22;67165;50.256;10.978;2023-11-22T09:14:26;1.50;98.00
26575;DHT22;67165;50.256;10.978;2023-11-22T09:16:52;1.50;98.00
26575;DHT22;67165;50.256;10.978;2023-11-22T09:19:24;1.50;98.00
26575;DHT22;67165;50.256;10.978;2023-11-22T09:21:50;1.40;98.00
26575;DHT22;67165;50.256;10.978;2023-11-22T09:24:16;1.30;98.00
26575;DHT22;67165;50.256;10.978;2023-11-22T09:26:42;1.30;98.00
26575;DHT22;67165;50.256;10.978;2023-11-22T09:29:09;1.30;98.00
26575;DHT22;67165;50.256;10.978;2023-11-22T09:31:39;1.30;98.00
26575;DHT22;67165;50.256;10.978;2023-11-22T09:34:04;1.40;98.00
26575;DHT22;67165;50.256;10.978;2023-11-22T09:36:30;1.30;98.00
26575;DHT22;67165;50.256;10.978;2023-11-22T09:38:59;1.30;98.00
26575;DHT22;67165;50.256;10.978;2023-11-22T09:41:25;1.20;98.00
26575;DHT22;67165;50.256;10.978;2023-11-22T09:43:52;1.20;98.00
26575;DHT22;67165;50.256;10.978;2023-11-22T09:46:19;1.20;98.00
26575;DHT22;67165;50.256;10.978;2023-11-22T09:48:47;1.20;98.00
26575;DHT22;67165;50.256;10.978;2023-11-22T09:51:27;1.20;98.00
26575;DHT22;67165;50.256;10.978;2023-11-22T09:54:00;1.20;98.00
26575;DHT22;67165;50.256;10.978;2023-11-22T09:56:33;1.20;98.00
26575;DHT22;67165;50.256;10.978;2023-11-22T09:59:03;1.20;98.00
26575;DHT22;67165;50.256;10.978;2023-11-22T10:01:30;1.20;98.00
26575;DHT22;67165;50.256;10.978;2023-11-22T10:04:02;1.20;98.00
26575;DHT22;67165;50.256;10.978;2023-11-22T10:06:33;1.20;98.00
26575;DHT22;67165;50.256;10.978;2023-11-22T10:09:04;1.20;98.00
26575;DHT22;67165;50.256;10.978;2023-11-22T10:11:34;1.30;98.00
26575;DHT22;67165;50.256;10.978;2023-11-22T10:14:02;1.30;98.00
26575;DHT22;67165;50.256;10.978;2023-11-22T10:16:27;1.30;98.00
26575;DHT22;67165;50.256;10.978;2023-11-22T10:18:53;1.30;98.00
26575;DHT22;67165;50.256;10.978;2023-11-22T10:24:10;1.30;98.00
26575;DHT22;67165;50.256;10.978;2023-11-22T10:26:35;1.30;98.00
26575;DHT22;67165;50.256;10.978;2023-11-22T10:29:01;1.20;98.00
26575;DHT22;67165;50.256;10.978;2023-11-22T10:31:27;1.20;98.00
26575;DHT22;67165;50.256;10.978;2023-11-22T10:33:54;1.20;98.00
26575;DHT22;67165;50.256;10.978;2023-11-22T10:36:23;1.20;98.00
26575;DHT22;67165;50.256;10.978;2023-11-22T10:38:49;1.30;98.00
26575;DHT22;67165;50.256;10.978;2023-11-22T10:41:16;1.40;98.00
26575;DHT22;67165;50.256;10.978;2023-11-22T10:43:42;1.50;98.00
26575;DHT22;67165;50.256;10.978;2023-11-22T10:46:10;1.50;98.00
26575;DHT22;67165;50.256;10.978;2023-11-22T10:48:38;1.50;98.00
26575;DHT22;67165;50.256;10.978;2023-11-22T10:51:04;1.60;98.00
26575;DHT22;67165;50.256;10.978;2023-11-22T10:53:36;1.60;98.00
26575;DHT22;67165;50.256;10.978;2023-11-22T10:56:16;1.60;98.00
26575;DHT22;67165;50.256;10.978;2023-11-22T10:58:56;1.70;98.00
26575;DHT22;67165;50.256;10.978;2023-11-22T11:01:26;1.60;98.00
26575;DHT22;67165;50.256;10.978;2023-11-22T11:06:24;1.60;98.00
26575;DHT22;67165;50.256;10.978;2023-11-22T11:09:02;1.50;98.00
26575;DHT22;67165;50.256;10.978;2023-11-22T11:11:33;1.60;98.00
26575;DHT22;67165;50.256;10.978;2023-11-22T11:14:00;1.60;98.00
26575;DHT22;67165;50.256;10.978;2023-11-22T11:16:27;1.70;98.00
26575;DHT22;67165;50.256;10.978;2023-11-22T11:18:54;1.80;98.00
26575;DHT22;67165;50.256;10.978;2023-11-22T11:21:20;1.80;98.00
26575;DHT22;67165;50.256;10.978;2023-11-22T11:23:46;1.80;98.00
26575;DHT22;67165;50.256;10.978;2023-11-22T11:26:19;1.80;98.00
26575;DHT22;67165;50.256;10.978;2023-11-22T11:28:50;1.80;98.00
26575;DHT22;67165;50.256;10.978;2023-11-22T11:31:17;1.90;98.00
26575;DHT22;67165;50.256;10.978;2023-11-22T11:36:28;1.80;98.00
26575;DHT22;67165;50.256;10.978;2023-11-22T11:38:55;1.80;98.00
26575;DHT22;67165;50.256;10.978;2023-11-22T11:41:26;1.80;98.00
26575;DHT22;67165;50.256;10.978;2023-11-22T11:43:53;1.80;98.00
26575;DHT22;67165;50.256;10.978;2023-11-22T11:46:20;1.80;98.00
26575;DHT22;67165;50.256;10.978;2023-11-22T11:48:49;1.90;98.00
26575;DHT22;67165;50.256;10.978;2023-11-22T11:51:17;1.90;98.00
26575;DHT22;67165;50.256;10.978;2023-11-22T11:53:44;1.90;98.00
26575;DHT22;67165;50.256;10.978;2023-11-22T11:56:10;1.90;98.00
26575;DHT22;67165;50.256;10.978;2023-11-22T11:58:36;1.90;98.00
26575;DHT22;67165;50.256;10.978;2023-11-22T12:01:06;1.90;98.00
26575;DHT22;67165;50.256;10.978;2023-11-22T12:03:38;2.00;98.00
26575;DHT22;67165;50.256;10.978;2023-11-22T12:06:05;1.90;98.00
26575;DHT22;67165;50.256;10.978;2023-11-22T12:08:31;1.90;98.00
26575;DHT22;67165;50.256;10.978;2023-11-22T12:11:04;1.90;98.00
26575;DHT22;67165;50.256;10.978;2023-11-22T12:13:34;2.00;98.00
26575;DHT22;67165;50.256;10.978;2023-11-22T12:16:01;2.00;98.00
26575;DHT22;67165;50.256;10.978;2023-11-22T12:18:28;2.10;98.00
26575;DHT22;67165;50.256;10.978;2023-11-22T12:21:03;2.10;98.00
26575;DHT22;67165;50.256;10.978;2023-11-22T12:23:29;2.10;98.00
26575;DHT22;67165;50.256;10.978;2023-11-22T12:26:00;2.10;98.00
26575;DHT22;67165;50.256;10.978;2023-11-22T12:28:28;2.10;98.00
26575;DHT22;67165;50.256;10.978;2023-11-22T12:30:53;2.10;98.00
26575;DHT22;67165;50.256;10.978;2023-11-22T12:33:19;2.10;98.00
26575;DHT22;67165;50.256;10.978;2023-11-22T12:35:46;2.20;98.00
26575;DHT22;67165;50.256;10.978;2023-11-22T12:38:12;2.10;98.00
26575;DHT22;67165;50.256;10.978;2023-11-22T12:40:38;2.10;98.00
26575;DHT22;67165;50.256;10.978;2023-11-22T12:43:04;2.10;98.00
26575;DHT22;67165;50.256;10.978;2023-11-22T12:45:30;2.10;98.00
26575;DHT22;67165;50.256;10.978;2023-11-22T12:47:59;2.10;98.00
26575;DHT22;67165;50.256;10.978;2023-11-22T12:50:38;2.10;98.00
26575;DHT22;67165;50.256;10.978;2023-11-22T12:53:11;2.10;98.00
26575;DHT22;67165;50.256;10.978;2023-11-22T12:55:48;2.10;98.00
26575;DHT22;67165;50.256;10.978;2023-11-22T12:58:17;2.10;98.00
26575;DHT22;67165;50.256;10.978;2023-11-22T13:00:45;2.00;98.00
26575;DHT22;67165;50.256;10.978;2023-11-22T13:03:11;2.00;98.00
26575;DHT22;67165;50.256;10.978;2023-11-22T13:05:45;1.90;98.00
26575;DHT22;67165;50.256;10.978;2023-11-22T13:08:11;2.00;98.00
26575;DHT22;67165;50.256;10.978;2023-11-22T13:10:51;2.00;98.00
26575;DHT22;67165;50.256;10.978;2023-11-22T13:13:22;2.00;98.00
26575;DHT22;67165;50.256;10.978;2023-11-22T13:15:49;2.00;98.00
26575;DHT22;67165;50.256;10.978;2023-11-22T13:18:18;2.00;98.00
26575;DHT22;67165;50.256;10.978;2023-11-22T13:20:44;2.00;98.00
26575;DHT22;67165;50.256;10.978;2023-11-22T13:23:11;2.10;98.00
26575;DHT22;67165;50.256;10.978;2023-11-22T13:25:37;2.10;98.00
26575;DHT22;67165;50.256;10.978;2023-11-22T13:28:03;2.20;98.00
26575;DHT22;67165;50.256;10.978;2023-11-22T13:30:30;2.20;98.00
26575;DHT22;67165;50.256;10.978;2023-11-22T13:32:56;2.20;98.00
26575;DHT22;67165;50.256;10.978;2023-11-22T13:35:23;2.20;98.00
26575;DHT22;67165;50.256;10.978;2023-11-22T13:37:49;2.20;98.00
26575;DHT22;67165;50.256;10.978;2023-11-22T13:40:17;2.20;98.00
26575;DHT22;67165;50.256;10.978;2023-11-22T13:42:44;2.10;98.00
26575;DHT22;67165;50.256;10.978;2023-11-22T13:45:13;2.20;98.00
26575;DHT22;67165;50.256;10.978;2023-11-22T13:47:53;2.20;98.00
26575;DHT22;67165;50.256;10.978;2023-11-22T13:50:45;2.30;98.00
26575;DHT22;67165;50.256;10.978;2023-11-22T13:53:11;2.30;98.00
26575;DHT22;67165;50.256;10.978;2023-11-22T13:55:36;2.40;98.00
26575;DHT22;67165;50.256;10.978;2023-11-22T13:58:04;2.40;98.00
26575;DHT22;67165;50.256;10.978;2023-11-22T14:00:31;2.40;98.00
26575;DHT22;67165;50.256;10.978;2023-11-22T14:03:01;2.50;98.00
26575;DHT22;67165;50.256;10.978;2023-11-22T14:05:33;2.40;98.00
26575;DHT22;67165;50.256;10.978;2023-11-22T14:07:59;2.40;98.00
26575;DHT22;67165;50.256;10.978;2023-11-22T14:10:26;2.40;98.00
26575;DHT22;67165;50.256;10.978;2023-11-22T14:12:51;2.30;98.00
26575;DHT22;67165;50.256;10.978;2023-11-22T14:15:17;2.30;98.00
26575;DHT22;67165;50.256;10.978;2023-11-22T14:17:44;2.30;98.00
26575;DHT22;67165;50.256;10.978;2023-11-22T14:20:11;2.30;98.00
26575;DHT22;67165;50.256;10.978;2023-11-22T14:22:38;2.10;98.00
26575;DHT22;67165;50.256;10.978;2023-11-22T14:25:08;2.10;98.00
26575;DHT22;67165;50.256;10.978;2023-11-22T14:27:38;2.10;98.00
26575;DHT22;67165;50.256;10.978;2023-11-22T14:30:04;2.10;98.00
26575;DHT22;67165;50.256;10.978;2023-11-22T14:32:33;2.10;98.00
26575;DHT22;67165;50.256;10.978;2023-11-22T14:35:04;2.10;98.00
26575;DHT22;67165;50.256;10.978;2023-11-22T14:37:30;2.00;98.00
26575;DHT22;67165;50.256;10.978;2023-11-22T14:39:59;2.00;98.00
26575;DHT22;67165;50.256;10.978;2023-11-22T14:42:25;1.90;98.00
26575;DHT22;67165;50.256;10.978;2023-11-22T14:44:51;1.80;98.00
26575;DHT22;67165;50.256;10.978;2023-11-22T14:47:17;1.70;98.00
26575;DHT22;67165;50.256;10.978;2023-11-22T14:49:48;1.60;98.00
26575;DHT22;67165;50.256;10.978;2023-11-22T14:52:14;1.60;98.00
26575;DHT22;67165;50.256;10.978;2023-11-22T14:54:41;1.50;98.00
26575;DHT22;67165;50.256;10.978;2023-11-22T14:57:07;1.50;98.00
26575;DHT22;67165;50.256;10.978;2023-11-22T14:59:35;1.50;98.00
26575;DHT22;67165;50.256;10.978;2023-11-22T15:02:03;1.40;98.00
26575;DHT22;67165;50.256;10.978;2023-11-22T15:04:30;1.40;98.00
26575;DHT22;67165;50.256;10.978;2023-11-22T15:06:56;1.30;98.00
26575;DHT22;67165;50.256;10.978;2023-11-22T15:09:22;1.40;98.00
26575;DHT22;67165;50.256;10.978;2023-11-22T15:11:47;1.30;98.00
26575;DHT22;67165;50.256;10.978;2023-11-22T15:14:13;1.30;98.00
26575;DHT22;67165;50.256;10.978;2023-11-22T15:16:39;1.30;98.00
26575;DHT22;67165;50.256;10.978;2023-11-22T15:19:04;1.20;98.00
26575;DHT22;67165;50.256;10.978;2023-11-22T15:21:32;1.20;98.00
26575;DHT22;67165;50.256;10.978;2023-11-22T15:23:59;1.20;98.00
26575;DHT22;67165;50.256;10.978;2023-11-22T15:26:25;1.10;98.00
26575;DHT22;67165;50.256;10.978;2023-11-22T15:28:52;1.00;98.00
26575;DHT22;67165;50.256;10.978;2023-11-22T15:31:18;1.00;98.00
26575;DHT22;67165;50.256;10.978;2023-11-22T15:33:44;1.00;98.00
26575;DHT22;67165;50.256;10.978;2023-11-22T15:36:11;1.00;98.00
26575;DHT22;67165;50.256;10.978;2023-11-22T15:38:36;0.90;98.00